Time;durP1;ratioP1;P1;durP2;ratioP2;P2;SDS_P1;SDS_P2;PMS_P1;PMS_P2;Temp;Humidity;BMP_temperature;BMP_pressure;BME280_temperature;BME280_humidity;BME280_pressure;Samples;Min_cycle;Max_cycle;Signal;HPM_P1;HPM_P2
2021/01/02 00:01:18;;;;;;;399.20;255.48;;;77.60;2099.20;;;;;;5052686;28;20072;-76
2021/01/02 00:04:11;;;;;;;455.67;297.73;;;77.70;2099.20;;;;;;5052672;28;20052;-75
2021/01/02 00:06:53;;;;;;;483.00;321.30;;;77.70;2099.20;;;;;;5066763;28;20489;-76
2021/01/02 00:09:23;;;;;;;489.05;321.13;;;77.60;2073.60;;;;;;5094272;28;20425;-75
2021/01/02 00:12:27;;;;;;;504.30;342.88;;;77.60;2099.20;;;;;;5094968;28;20024;-75
2021/01/02 00:15:15;;;;;;;484.35;312.15;;;77.60;2099.20;;;;;;5052338;28;20037;-76
2021/01/02 00:17:50;;;;;;;467.13;310.17;;;77.60;2099.20;;;;;;5052714;28;20112;-76
2021/01/02 00:20:49;;;;;;;446.42;282.20;;;77.50;2099.20;;;;;;5052570;28;20033;-76
2021/01/02 00:23:56;;;;;;;468.88;310.67;;;77.50;2073.60;;;;;;5052398;28;20056;-75
2021/01/02 00:26:54;;;;;;;506.00;333.08;;;77.50;2099.20;;;;;;5052079;28;20090;-75
2021/01/02 00:29:24;;;;;;;515.92;336.08;;;77.30;2099.20;;;;;;5052367;28;20025;-75
2021/01/02 00:32:02;;;;;;;483.50;313.63;;;77.20;2124.80;;;;;;5052294;28;20033;-78
2021/01/02 00:35:04;;;;;;;507.92;334.98;;;77.30;2124.80;;;;;;5035598;28;20834;-78
2021/01/02 00:37:40;;;;;;;514.75;340.35;;;77.30;2099.20;;;;;;5052028;28;20455;-77
2021/01/02 00:40:14;;;;;;;499.35;327.33;;;77.30;2099.20;;;;;;5035329;28;20116;-78
2021/01/02 00:42:44;;;;;;;501.60;320.70;;;77.30;2099.20;;;;;;5052231;28;20067;-75
2021/01/02 00:45:13;;;;;;;477.70;305.20;;;77.30;2099.20;;;;;;5035332;28;20041;-79
2021/01/02 00:47:41;;;;;;;441.70;280.63;;;77.30;2099.20;;;;;;5035333;28;20045;-77
2021/01/02 00:50:09;;;;;;;445.80;279.10;;;77.30;2073.60;;;;;;5035650;28;20024;-81
2021/01/02 00:53:02;;;;;;;470.38;300.13;;;77.30;2073.60;;;;;;5085562;28;20059;-81
2021/01/02 00:55:51;;;;;;;459.83;278.75;;;77.30;2099.20;;;;;;5093020;28;20020;-79
2021/01/02 00:58:28;;;;;;;423.33;272.05;;;77.20;2099.20;;;;;;5094082;28;20031;-78
2021/01/02 01:01:13;;;;;;;458.67;283.45;;;77.20;2124.80;;;;;;5092795;28;20089;-78
2021/01/02 01:04:10;;;;;;;399.98;240.18;;;77.20;2099.20;;;;;;5094142;28;20031;-76
2021/01/02 01:06:39;;;;;;;365.90;228.48;;;77.20;2099.20;;;;;;5094042;28;20510;-78
2021/01/02 01:09:05;;;;;;;346.77;204.45;;;77.10;2099.20;;;;;;5093859;28;20024;-78
2021/01/02 01:11:36;;;;;;;309.15;178.15;;;77.10;2099.20;;;;;;5092734;28;20020;-76
2021/01/02 01:14:05;;;;;;;278.80;163.75;;;77.10;2099.20;;;;;;5094104;28;20020;-76
2021/01/02 01:16:42;;;;;;;256.63;151.88;;;77.20;2099.20;;;;;;5093869;28;20024;-76
2021/01/02 01:19:11;;;;;;;277.75;164.50;;;77.10;2099.20;;;;;;5093852;28;20024;-76
2021/01/02 01:21:43;;;;;;;295.40;166.85;;;77.10;2073.60;;;;;;5093852;28;20028;-75
2021/01/02 01:24:13;;;;;;;300.48;183.50;;;77.10;2099.20;;;;;;5093472;28;20070;-75
2021/01/02 01:27:04;;;;;;;268.48;156.68;;;77.10;2099.20;;;;;;5093925;28;20058;-76
2021/01/02 01:29:46;;;;;;;236.27;141.98;;;77.10;2099.20;;;;;;5093768;28;20024;-77
2021/01/02 01:32:15;;;;;;;204.57;121.88;;;77.10;2099.20;;;;;;5093564;28;20377;-76
2021/01/02 01:34:46;;;;;;;218.57;131.50;;;77.10;2099.20;;;;;;5093681;28;20517;-75
2021/01/02 01:37:15;;;;;;;221.63;134.50;;;77.00;2099.20;;;;;;5093358;28;20030;-76
2021/01/02 01:39:49;;;;;;;166.07;104.88;;;77.00;2099.20;;;;;;5093548;28;20059;-76
2021/01/02 01:42:21;;;;;;;177.50;109.18;;;76.90;2099.20;;;;;;5093365;28;20081;-75
2021/01/02 01:45:06;;;;;;;169.38;106.43;;;77.00;2099.20;;;;;;5093488;28;20042;-75
2021/01/02 01:47:35;;;;;;;162.65;101.70;;;77.00;2099.20;;;;;;5093404;28;20430;-77
2021/01/02 01:50:26;;;;;;;166.63;105.25;;;76.90;2099.20;;;;;;5092841;28;20084;-75
2021/01/02 01:52:51;;;;;;;140.70;89.20;;;76.90;2099.20;;;;;;5051168;28;20112;-75
2021/01/02 01:55:29;;;;;;;107.40;65.18;;;76.90;2099.20;;;;;;5050999;28;20108;-76
2021/01/02 01:58:10;;;;;;;95.78;61.67;;;76.80;2099.20;;;;;;5051128;28;20135;-76
2021/01/02 02:00:50;;;;;;;95.35;59.08;;;76.80;2099.20;;;;;;5050830;28;20362;-75
2021/01/02 02:03:22;;;;;;;132.60;77.50;;;76.80;2099.20;;;;;;5050954;28;20048;-75
2021/01/02 02:06:22;;;;;;;124.28;73.78;;;76.80;2099.20;;;;;;5050682;28;20041;-75
2021/01/02 02:08:59;;;;;;;113.95;72.93;;;76.80;2099.20;;;;;;4972343;28;20166;-75
2021/01/02 02:11:44;;;;;;;125.43;77.32;;;76.90;2099.20;;;;;;4972186;28;20105;-75
2021/01/02 02:14:31;;;;;;;113.10;71.32;;;76.80;2099.20;;;;;;4972279;28;20081;-76
2021/01/02 02:17:04;;;;;;;116.85;73.65;;;76.80;2099.20;;;;;;4972068;28;20022;-75
2021/01/02 02:20:05;;;;;;;120.20;75.50;;;76.80;2073.60;;;;;;4956062;28;20031;-76
2021/01/02 02:22:35;;;;;;;110.28;72.57;;;76.80;2073.60;;;;;;4972559;28;20030;-82
2021/01/02 02:25:03;;;;;;;123.35;76.35;;;76.80;2073.60;;;;;;4955746;28;20047;-84
2021/01/02 02:27:29;;;;;;;144.38;88.55;;;52.10;2099.20;;;;;;4972327;28;20034;-81
2021/01/02 02:30:07;;;;;;;146.27;88.47;;;51.90;2124.80;;;;;;4976160;28;20121;-85
2021/01/02 02:32:40;;;;;;;149.93;87.65;;;51.90;2124.80;;;;;;5011400;28;20038;-82
2021/01/02 02:35:11;;;;;;;172.45;98.50;;;51.80;2124.80;;;;;;5011512;28;20555;-82
2021/01/02 02:37:39;;;;;;;159.30;93.15;;;51.80;2124.80;;;;;;4995090;28;20049;-82
2021/01/02 02:40:07;;;;;;;171.38;96.50;;;51.90;2124.80;;;;;;4994603;28;20026;-76
2021/01/02 02:42:36;;;;;;;157.55;91.93;;;51.90;2124.80;;;;;;5011218;28;20032;-75
2021/01/02 02:45:06;;;;;;;140.63;87.80;;;51.90;2099.20;;;;;;5074544;28;20121;-78
2021/01/02 02:47:36;;;;;;;126.07;77.70;;;52.00;2124.80;;;;;;5092744;28;20020;-76
2021/01/02 02:50:03;;;;;;;125.00;72.78;;;51.90;2124.80;;;;;;5092945;28;20032;-76
2021/01/02 02:52:38;;;;;;;111.38;68.95;;;52.00;2124.80;;;;;;5092838;28;20469;-78
2021/01/02 02:55:04;;;;;;;113.70;69.63;;;51.90;2124.80;;;;;;5092898;28;20031;-76
2021/01/02 02:57:31;;;;;;;107.50;62.58;;;52.00;2124.80;;;;;;5092817;28;20055;-76
2021/01/02 02:59:57;;;;;;;109.88;66.35;;;52.00;2124.80;;;;;;5091264;28;20024;-77
2021/01/02 03:02:25;;;;;;;109.28;64.07;;;52.00;2099.20;;;;;;5094409;28;20023;-84
2021/01/02 03:04:51;;;;;;;111.03;64.95;;;52.00;2099.20;;;;;;5095112;28;20487;-78
2021/01/02 03:07:17;;;;;;;102.10;63.50;;;52.00;2099.20;;;;;;5094926;28;20111;-76
2021/01/02 03:09:44;;;;;;;113.65;72.70;;;51.90;2073.60;;;;;;5096416;28;20380;-76
2021/01/02 03:12:09;;;;;;;110.72;68.85;;;51.90;2099.20;;;;;;5096243;28;20024;-76
2021/01/02 03:14:36;;;;;;;103.28;63.92;;;51.90;2099.20;;;;;;5095990;28;20020;-77
2021/01/02 03:17:02;;;;;;;109.35;69.47;;;52.00;2099.20;;;;;;5095921;28;20059;-77
2021/01/02 03:19:29;;;;;;;125.57;72.55;;;52.00;2073.60;;;;;;5096065;28;20103;-75
2021/01/02 03:21:55;;;;;;;137.35;78.15;;;52.00;2099.20;;;;;;5094727;28;20081;-76
2021/01/02 03:24:21;;;;;;;144.32;80.82;;;52.00;2099.20;;;;;;5094577;28;20048;-77
2021/01/02 03:26:47;;;;;;;137.38;83.10;;;51.90;2099.20;;;;;;5095831;28;20032;-76
2021/01/02 03:29:13;;;;;;;128.85;73.20;;;51.90;2099.20;;;;;;5095786;28;20016;-77
2021/01/02 03:31:39;;;;;;;142.93;81.75;;;51.90;2099.20;;;;;;5095803;28;20032;-77
2021/01/02 03:34:06;;;;;;;124.53;72.38;;;51.80;2099.20;;;;;;5094519;28;20035;-77
2021/01/02 03:36:33;;;;;;;113.65;65.65;;;51.90;2099.20;;;;;;5094552;28;20349;-77
2021/01/02 03:38:59;;;;;;;112.00;65.40;;;51.90;2099.20;;;;;;5095724;28;20381;-78
2021/01/02 03:41:27;;;;;;;108.95;61.30;;;51.90;2099.20;;;;;;5095775;28;20024;-78
2021/01/02 03:43:53;;;;;;;93.18;57.20;;;52.00;2099.20;;;;;;5095472;28;20059;-83
2021/01/02 03:46:24;;;;;;;103.82;62.25;;;52.00;2099.20;;;;;;5095442;28;20036;-76
2021/01/02 03:48:50;;;;;;;113.15;64.28;;;51.90;2099.20;;;;;;5094385;28;20024;-76
2021/01/02 03:51:25;;;;;;;102.72;56.17;;;51.90;2099.20;;;;;;5095371;28;20035;-79
2021/01/02 03:53:51;;;;;;;102.28;59.95;;;51.90;2099.20;;;;;;5095685;28;20020;-86
2021/01/02 03:56:16;;;;;;;90.32;54.63;;;51.90;2099.20;;;;;;5094050;28;20036;-78
2021/01/02 03:58:42;;;;;;;82.07;52.65;;;51.90;2099.20;;;;;;5093888;28;20073;-80
2021/01/02 04:01:11;;;;;;;85.93;52.10;;;51.90;2099.20;;;;;;5094247;28;20035;-80
2021/01/02 04:03:36;;;;;;;83.93;51.50;;;51.90;2099.20;;;;;;5094095;28;20123;-77
2021/01/02 04:06:02;;;;;;;81.20;51.92;;;51.90;2073.60;;;;;;5093983;28;20449;-78
2021/01/02 04:08:28;;;;;;;101.55;60.22;;;51.90;2073.60;;;;;;5093508;28;20114;-81
2021/01/02 04:10:54;;;;;;;101.30;61.25;;;51.70;2099.20;;;;;;5094951;28;20031;-76
2021/01/02 04:13:19;;;;;;;97.10;61.88;;;51.70;2099.20;;;;;;5093322;28;20024;-80
2021/01/02 04:15:45;;;;;;;121.18;74.90;;;51.80;2099.20;;;;;;5094822;28;20024;-76
2021/01/02 04:18:11;;;;;;;110.72;67.90;;;51.60;2099.20;;;;;;5094887;28;20353;-76
2021/01/02 04:20:37;;;;;;;114.45;68.38;;;51.70;2099.20;;;;;;5095012;28;20513;-75
2021/01/02 04:23:03;;;;;;;109.63;69.93;;;51.70;2099.20;;;;;;5094841;28;20096;-75
2021/01/02 04:25:28;;;;;;;95.55;62.38;;;51.70;2099.20;;;;;;5094574;28;20051;-75
2021/01/02 04:27:54;;;;;;;101.13;63.50;;;51.70;2073.60;;;;;;5094725;28;20032;-77
2021/01/02 04:30:20;;;;;;;115.85;70.32;;;51.70;2073.60;;;;;;5093349;28;20032;-77
2021/01/02 04:32:48;;;;;;;108.53;66.43;;;51.70;2073.60;;;;;;5093348;28;20119;-77
2021/01/02 04:35:14;;;;;;;113.30;66.47;;;51.60;2099.20;;;;;;5093365;28;20032;-79
2021/01/02 04:37:41;;;;;;;114.28;73.38;;;51.70;2099.20;;;;;;5094890;28;20385;-77
2021/01/02 04:40:09;;;;;;;127.35;77.97;;;51.70;2099.20;;;;;;5093288;28;20107;-79
2021/01/02 04:42:39;;;;;;;121.90;76.68;;;51.70;2073.60;;;;;;5093521;28;20085;-76
2021/01/02 04:45:06;;;;;;;115.40;72.97;;;51.70;2073.60;;;;;;5094431;28;20024;-76
2021/01/02 04:47:32;;;;;;;115.40;70.22;;;51.70;2073.60;;;;;;5076219;28;20081;-79
2021/01/02 04:49:59;;;;;;;111.53;66.03;;;51.60;2099.20;;;;;;5094412;28;20023;-79
2021/01/02 04:52:26;;;;;;;96.22;59.42;;;51.60;2099.20;;;;;;5094305;28;20522;-79
2021/01/02 04:54:51;;;;;;;104.13;62.13;;;51.60;2099.20;;;;;;5094253;28;20046;-79
2021/01/02 04:57:18;;;;;;;123.40;70.57;;;51.60;2099.20;;;;;;5094150;28;20020;-79
2021/01/02 04:59:51;;;;;;;124.55;76.15;;;51.60;2099.20;;;;;;5094205;28;20495;-76
2021/01/02 05:02:20;;;;;;;119.35;72.78;;;51.60;2073.60;;;;;;5092830;28;20024;-77
2021/01/02 05:04:48;;;;;;;127.28;78.05;;;51.60;2073.60;;;;;;5093005;28;20028;-77
2021/01/02 05:07:26;;;;;;;130.43;79.40;;;51.50;2073.60;;;;;;5094019;28;20036;-77
2021/01/02 05:09:52;;;;;;;133.95;81.95;;;51.60;2073.60;;;;;;5093691;28;20031;-77
2021/01/02 05:12:32;;;;;;;171.57;98.45;;;51.40;2073.60;;;;;;5093986;28;20020;-77
2021/01/02 05:15:01;;;;;;;195.13;108.53;;;51.30;2099.20;;;;;;5092797;28;20024;-77
2021/01/02 05:17:28;;;;;;;173.38;99.20;;;26.50;2099.20;;;;;;5092511;28;20430;-76
2021/01/02 05:20:03;;;;;;;155.68;93.63;;;51.20;2124.80;;;;;;5092711;28;20024;-77
2021/01/02 05:22:29;;;;;;;134.05;80.07;;;51.30;2124.80;;;;;;5092523;28;20105;-79
2021/01/02 05:25:04;;;;;;;126.10;73.18;;;51.40;2124.80;;;;;;5091633;28;20055;-79
2021/01/02 05:27:34;;;;;;;126.60;77.82;;;51.40;2124.80;;;;;;5093784;28;20036;-77
2021/01/02 05:30:19;;;;;;;123.38;74.95;;;51.40;2099.20;;;;;;5092731;28;20109;-77
2021/01/02 05:33:08;;;;;;;115.32;72.60;;;51.40;2099.20;;;;;;5092360;28;20144;-77
2021/01/02 05:35:41;;;;;;;121.50;71.97;;;51.40;2099.20;;;;;;5092497;28;20020;-77
2021/01/02 05:38:27;;;;;;;137.40;77.53;;;51.40;2099.20;;;;;;5092427;28;20048;-77
2021/01/02 05:40:58;;;;;;;138.93;82.00;;;51.50;2099.20;;;;;;5093625;28;20393;-77
2021/01/02 05:43:26;;;;;;;132.45;83.35;;;51.40;2099.20;;;;;;5092254;28;20028;-76
2021/01/02 05:45:53;;;;;;;145.20;86.82;;;51.40;2099.20;;;;;;5093289;28;20063;-75
2021/01/02 05:48:24;;;;;;;157.95;93.78;;;51.40;2099.20;;;;;;5093284;28;20020;-77
2021/01/02 05:50:56;;;;;;;133.30;81.10;;;51.30;2099.20;;;;;;5093385;28;20487;-75
2021/01/02 05:53:29;;;;;;;119.05;73.15;;;51.30;2099.20;;;;;;5093441;28;20559;-76
2021/01/02 05:56:03;;;;;;;146.80;87.35;;;51.30;2099.20;;;;;;5093412;28;20103;-76
2021/01/02 05:58:30;;;;;;;106.78;69.63;;;51.40;2099.20;;;;;;5093496;28;20039;-76
2021/01/02 06:01:27;;;;;;;121.88;75.70;;;51.20;2099.20;;;;;;5093410;28;20376;-76
2021/01/02 06:03:57;;;;;;;98.47;59.63;;;26.50;2099.20;;;;;;5092828;28;20036;-76
2021/01/02 06:06:22;;;;;;;109.93;64.60;;;26.40;2099.20;;;;;;5093360;28;20036;-76
2021/01/02 06:08:52;;;;;;;101.38;61.33;;;26.40;2124.80;;;;;;5093303;28;20063;-76
2021/01/02 06:11:22;;;;;;;108.38;65.53;;;26.50;2099.20;;;;;;5093332;28;20028;-76
2021/01/02 06:13:52;;;;;;;136.00;79.07;;;26.50;2099.20;;;;;;5093114;28;20027;-77
2021/01/02 06:16:19;;;;;;;173.35;104.82;;;51.20;2124.80;;;;;;5093062;28;20047;-76
2021/01/02 06:18:46;;;;;;;171.40;107.38;;;51.20;2099.20;;;;;;5092989;28;20061;-76
2021/01/02 06:21:16;;;;;;;171.55;107.30;;;51.20;2099.20;;;;;;5093442;28;20146;-82
2021/01/02 06:23:44;;;;;;;189.82;112.93;;;51.20;2073.60;;;;;;5092787;28;20557;-79
2021/01/02 06:26:12;;;;;;;204.32;119.93;;;51.20;2073.60;;;;;;5093008;28;20032;-76
2021/01/02 06:28:43;;;;;;;218.85;132.25;;;51.30;2099.20;;;;;;5091779;28;20093;-76
2021/01/02 06:31:11;;;;;;;212.77;130.38;;;51.30;2073.60;;;;;;5093079;28;20035;-76
2021/01/02 06:33:44;;;;;;;208.50;128.27;;;51.20;2099.20;;;;;;5091341;28;20028;-79
2021/01/02 06:36:28;;;;;;;218.48;128.80;;;51.20;2099.20;;;;;;5096166;28;20020;-79
2021/01/02 06:39:13;;;;;;;;;;;51.30;2073.60;;;;;;5096155;28;20039;-81
2021/01/02 06:41:39;;;;;;;226.90;139.55;;;51.40;2073.60;;;;;;5095649;28;19953;-80
2021/01/02 06:44:04;;;;;;;243.15;145.27;;;51.30;2073.60;;;;;;5096674;28;20059;-78
2021/01/02 06:46:39;;;;;;;257.13;158.02;;;51.30;2099.20;;;;;;5094799;28;20430;-78
2021/01/02 06:49:44;;;;;;;302.23;176.48;;;51.30;2099.20;;;;;;5096688;28;20482;-79
2021/01/02 06:52:30;;;;;;;297.95;177.35;;;51.50;2073.60;;;;;;5053099;28;20021;-78
2021/01/02 06:55:17;;;;;;;281.73;165.57;;;51.50;2073.60;;;;;;5053614;28;20044;-79
2021/01/02 06:57:43;;;;;;;259.10;159.23;;;51.60;2048.00;;;;;;5053923;28;20033;-77
2021/01/02 07:00:21;;;;;;;254.20;158.55;;;51.60;2073.60;;;;;;5053692;28;20205;-77
2021/01/02 07:02:46;;;;;;;190.20;117.13;;;51.70;2073.60;;;;;;5053922;28;20405;-81
2021/01/02 07:05:42;;;;;;;151.68;97.22;;;51.70;2073.60;;;;;;5036899;28;20036;-79
2021/01/02 07:08:56;;;;;;;220.27;139.77;;;51.70;2073.60;;;;;;5063935;28;20090;-78
2021/01/02 07:11:43;;;;;;;213.75;140.10;;;51.80;2073.60;;;;;;5016903;28;20022;-79
2021/01/02 07:14:09;;;;;;;137.65;87.22;;;51.90;2073.60;;;;;;5032738;28;20545;-81
2021/01/02 07:16:58;;;;;;;116.35;72.75;;;51.70;2073.60;;;;;;5032807;28;20132;-76
2021/01/02 07:19:27;;;;;;;124.35;73.18;;;51.80;2073.60;;;;;;5032312;28;20026;-77
2021/01/02 07:22:13;;;;;;;154.48;91.18;;;51.90;2073.60;;;;;;5036969;28;20037;-81
2021/01/02 07:24:44;;;;;;;155.88;91.88;;;51.90;2073.60;;;;;;5056736;28;20481;-79
2021/01/02 07:27:14;;;;;;;134.75;82.03;;;52.00;2073.60;;;;;;5073651;28;20040;-80
2021/01/02 07:29:42;;;;;;;108.30;66.88;;;52.00;2048.00;;;;;;5073876;28;20162;-80
2021/01/02 07:32:07;;;;;;;99.80;65.90;;;52.10;2048.00;;;;;;5073339;28;20039;-76
2021/01/02 07:34:34;;;;;;;111.68;76.10;;;76.80;2073.60;;;;;;5072978;28;20037;-76
2021/01/02 07:37:08;;;;;;;155.98;105.93;;;52.10;2073.60;;;;;;5072786;28;20504;-76
2021/01/02 07:39:35;;;;;;;148.15;101.80;;;76.80;2073.60;;;;;;5072862;28;20028;-77
2021/01/02 07:42:04;;;;;;;133.35;88.07;;;76.80;2073.60;;;;;;5061069;28;20381;-76
2021/01/02 07:44:30;;;;;;;147.13;96.38;;;76.80;2073.60;;;;;;5072396;28;20120;-77
2021/01/02 07:46:55;;;;;;;158.18;106.70;;;77.00;2073.60;;;;;;5057638;28;20052;-77
2021/01/02 07:49:21;;;;;;;147.88;100.43;;;77.00;2073.60;;;;;;5094845;28;20019;-78
2021/01/02 07:51:48;;;;;;;142.48;95.95;;;77.10;2048.00;;;;;;5093647;28;20426;-76
2021/01/02 07:54:36;;;;;;;166.52;100.88;;;77.10;2048.00;;;;;;5089892;28;20476;-77
2021/01/02 07:57:07;;;;;;;160.00;107.13;;;77.20;2048.00;;;;;;5092041;28;20027;-77
2021/01/02 07:59:37;;;;;;;130.27;93.70;;;77.20;2073.60;;;;;;5094280;28;20095;-80
2021/01/02 08:02:05;;;;;;;128.40;91.93;;;77.30;2073.60;;;;;;5093381;28;20023;-80
2021/01/02 08:04:32;;;;;;;145.90;98.45;;;77.30;2048.00;;;;;;5094652;28;20046;-77
2021/01/02 08:07:00;;;;;;;156.65;105.32;;;77.40;2048.00;;;;;;5095280;28;20043;-78
2021/01/02 08:09:28;;;;;;;170.18;116.70;;;77.50;2048.00;;;;;;5094805;28;20450;-75
2021/01/02 08:11:59;;;;;;;167.90;116.10;;;77.60;2048.00;;;;;;5094621;28;20030;-77
2021/01/02 08:14:29;;;;;;;221.23;142.15;;;77.60;2073.60;;;;;;5094501;28;20091;-76
2021/01/02 08:17:03;;;;;;;217.05;141.68;;;77.70;2048.00;;;;;;5095363;28;20077;-75
2021/01/02 08:19:37;;;;;;;206.30;134.57;;;77.70;2048.00;;;;;;5094831;28;20152;-77
2021/01/02 08:22:05;;;;;;;165.73;108.15;;;102.40;2048.00;;;;;;5093249;28;20024;-76
2021/01/02 08:24:31;;;;;;;123.20;85.45;;;102.40;2073.60;;;;;;5094489;28;20508;-75
2021/01/02 08:26:59;;;;;;;100.28;69.95;;;102.50;2073.60;;;;;;5093566;28;20039;-77
2021/01/02 08:29:26;;;;;;;79.35;53.75;;;102.60;2073.60;;;;;;5094636;28;20116;-76
2021/01/02 08:31:57;;;;;;;73.60;54.13;;;102.60;2073.60;;;;;;5094512;28;20024;-76
2021/01/02 08:34:29;;;;;;;72.38;51.20;;;102.60;2073.60;;;;;;5094641;28;20016;-76
2021/01/02 08:37:02;;;;;;;83.82;53.88;;;102.70;2099.20;;;;;;5094137;28;20040;-74
2021/01/02 08:39:28;;;;;;;83.78;55.90;;;102.80;2099.20;;;;;;5094342;28;20024;-76
2021/01/02 08:41:56;;;;;;;83.43;57.90;;;102.90;2073.60;;;;;;5093298;28;20031;-77
2021/01/02 08:44:27;;;;;;;80.45;54.33;;;102.90;2073.60;;;;;;5094087;28;20028;-77
2021/01/02 08:46:53;;;;;;;81.13;55.90;;;103.00;2073.60;;;;;;5093641;28;20070;-76
2021/01/02 08:49:41;;;;;;;78.05;55.17;;;103.10;2073.60;;;;;;5093885;28;20016;-75
2021/01/02 08:52:24;;;;;;;80.40;55.97;;;103.20;2048.00;;;;;;5094201;28;20020;-76
2021/01/02 08:54:52;;;;;;;78.05;54.65;;;128.00;2073.60;;;;;;5093623;28;20027;-77
2021/01/02 08:57:26;;;;;;;81.75;59.75;;;128.10;2073.60;;;;;;5093159;28;20031;-76
2021/01/02 08:59:51;;;;;;;94.45;64.10;;;128.20;2048.00;;;;;;5092502;28;20012;-75
2021/01/02 09:02:18;;;;;;;88.85;64.13;;;128.40;2022.40;;;;;;5092254;28;20023;-76
2021/01/02 09:05:05;;;;;;;88.28;61.42;;;128.60;1996.80;;;;;;5092902;28;20047;-75
2021/01/02 09:07:31;;;;;;;93.70;67.78;;;128.90;1945.60;;;;;;5089301;28;20059;-75
2021/01/02 09:10:30;;;;;;;64.00;45.40;;;153.70;1945.60;;;;;;5093199;28;20105;-74
2021/01/02 09:13:04;;;;;;;69.68;48.35;;;154.00;1868.80;;;;;;5051427;28;20362;-75
2021/01/02 09:16:11;;;;;;;74.57;52.40;;;154.30;1868.80;;;;;;5050887;28;20500;-75
2021/01/02 09:18:38;;;;;;;86.75;59.95;;;154.30;1868.80;;;;;;4976880;28;20043;-74
2021/01/02 09:21:06;;;;;;;88.07;60.17;;;154.40;1868.80;;;;;;4976006;28;20129;-75
2021/01/02 09:23:33;;;;;;;81.90;57.25;;;179.30;1843.20;;;;;;4981721;28;20030;-76
2021/01/02 09:25:59;;;;;;;89.10;59.22;;;179.50;1817.60;;;;;;4982684;28;20141;-75
2021/01/02 09:28:25;;;;;;;77.10;54.05;;;179.50;1792.00;;;;;;4980164;28;20042;-75
2021/01/02 09:30:52;;;;;;;71.00;50.17;;;179.80;1766.40;;;;;;4976539;28;20482;-74
2021/01/02 09:33:18;;;;;;;72.70;49.70;;;180.10;1766.40;;;;;;4978867;28;20106;-75
2021/01/02 09:35:46;;;;;;;72.40;50.67;;;204.80;1766.40;;;;;;4982604;28;20033;-75
2021/01/02 09:38:13;;;;;;;62.78;45.38;;;205.10;1740.80;;;;;;4987806;28;20030;-75
2021/01/02 09:40:42;;;;;;;65.43;45.03;;;205.20;1740.80;;;;;;4990361;28;20110;-75
2021/01/02 09:43:13;;;;;;;61.33;43.97;;;205.30;1715.20;;;;;;4991841;28;20070;-76
2021/01/02 09:45:40;;;;;;;65.25;45.88;;;205.40;1689.60;;;;;;4991858;28;20034;-76
2021/01/02 09:48:07;;;;;;;72.70;46.08;;;205.50;1689.60;;;;;;4998169;28;20042;-76
2021/01/02 09:50:33;;;;;;;76.57;51.78;;;205.60;1689.60;;;;;;5011882;28;20018;-75
2021/01/02 09:53:00;;;;;;;66.95;47.47;;;205.70;1689.60;;;;;;5011660;28;20520;-76
2021/01/02 09:55:25;;;;;;;69.25;45.92;;;230.40;1664.00;;;;;;5038034;28;20024;-75
2021/01/02 09:57:51;;;;;;;68.20;46.15;;;230.50;1664.00;;;;;;5073586;28;20491;-76
2021/01/02 10:00:19;;;;;;;66.30;45.50;;;230.70;1612.80;;;;;;5073244;28;20070;-76
2021/01/02 10:02:45;;;;;;;74.05;46.60;;;230.80;1612.80;;;;;;5072997;28;20021;-75
2021/01/02 10:05:16;;;;;;;63.63;47.50;;;230.90;1587.20;;;;;;5087569;28;20079;-76
2021/01/02 10:07:43;;;;;;;74.57;53.63;;;230.90;1587.20;;;;;;5093097;28;20028;-74
2021/01/02 10:10:10;;;;;;;73.30;54.58;;;231.00;1587.20;;;;;;5094511;28;20023;-75
2021/01/02 10:12:35;;;;;;;73.40;51.97;;;231.10;1561.60;;;;;;5097191;28;20028;-74
2021/01/02 10:15:01;;;;;;;81.40;58.25;;;231.00;1510.40;;;;;;5097430;28;20025;-75
2021/01/02 10:17:30;;;;;;;77.95;60.05;;;231.00;1536.00;;;;;;5097211;28;20035;-75
2021/01/02 10:19:56;;;;;;;80.57;63.15;;;231.00;1510.40;;;;;;5097485;28;20035;-75
2021/01/02 10:22:22;;;;;;;88.22;64.25;;;230.90;1536.00;;;;;;5097314;28;20427;-75
2021/01/02 10:24:52;;;;;;;94.80;71.50;;;230.90;1561.60;;;;;;5097159;28;20051;-75
2021/01/02 10:27:19;;;;;;;83.38;62.45;;;231.00;1536.00;;;;;;5096933;28;20042;-75
2021/01/02 10:29:49;;;;;;;102.18;76.75;;;231.10;1536.00;;;;;;5097104;28;20020;-75
2021/01/02 10:32:16;;;;;;;109.30;80.60;;;231.20;1561.60;;;;;;5096924;28;20384;-74
2021/01/02 10:34:45;;;;;;;103.60;79.07;;;231.30;1561.60;;;;;;5096839;28;20396;-74
2021/01/02 10:37:14;;;;;;;94.72;69.72;;;231.30;1561.60;;;;;;5096968;28;20017;-77
2021/01/02 10:39:41;;;;;;;97.43;72.80;;;256.00;1536.00;;;;;;5096812;28;20020;-75
2021/01/02 10:42:07;;;;;;;99.18;75.38;;;256.10;1536.00;;;;;;5096719;28;20464;-75
2021/01/02 10:44:33;;;;;;;108.35;79.18;;;256.10;1510.40;;;;;;5096664;28;20480;-74
2021/01/02 10:46:59;;;;;;;92.82;72.97;;;256.20;1510.40;;;;;;5096688;28;20040;-75
2021/01/02 10:49:26;;;;;;;86.97;66.15;;;231.30;1510.40;;;;;;5096630;28;20457;-76
2021/01/02 10:51:53;;;;;;;84.85;64.90;;;256.00;1536.00;;;;;;5096800;28;20072;-77
2021/01/02 10:54:19;;;;;;;92.40;71.32;;;256.00;1536.00;;;;;;5096609;28;20020;-75
2021/01/02 10:56:48;;;;;;;122.60;88.63;;;256.00;1536.00;;;;;;5096434;28;20016;-75
2021/01/02 10:59:15;;;;;;;105.05;79.57;;;256.00;1536.00;;;;;;5096391;28;20039;-78
2021/01/02 11:01:42;;;;;;;98.85;75.35;;;231.30;1561.60;;;;;;5096514;28;20020;-75
2021/01/02 11:04:08;;;;;;;110.25;75.88;;;231.30;1561.60;;;;;;5096418;28;20075;-75
2021/01/02 11:06:36;;;;;;;108.85;81.50;;;231.30;1587.20;;;;;;5077884;28;20040;-75
2021/01/02 11:09:03;;;;;;;106.88;80.30;;;231.20;1587.20;;;;;;5096144;28;20467;-75
2021/01/02 11:11:28;;;;;;;96.82;76.68;;;231.10;1587.20;;;;;;5096740;28;20039;-76
2021/01/02 11:13:54;;;;;;;103.88;76.45;;;231.10;1612.80;;;;;;5096325;28;20549;-76
2021/01/02 11:16:32;;;;;;;100.82;74.28;;;231.10;1638.40;;;;;;5096174;28;20036;-76
2021/01/02 11:18:58;;;;;;;100.10;74.38;;;231.20;1612.80;;;;;;5096081;28;20020;-76
2021/01/02 11:21:24;;;;;;;106.18;75.32;;;231.20;1612.80;;;;;;5095035;28;20532;-75
2021/01/02 11:23:50;;;;;;;102.40;78.60;;;231.20;1612.80;;;;;;5094524;28;20024;-75
2021/01/02 11:26:16;;;;;;;114.20;85.25;;;231.20;1612.80;;;;;;5095725;28;20557;-75
2021/01/02 11:28:42;;;;;;;139.63;102.25;;;231.20;1612.80;;;;;;5095910;28;20472;-75
2021/01/02 11:31:09;;;;;;;151.77;115.93;;;231.10;1638.40;;;;;;5095908;28;20099;-75
2021/01/02 11:33:34;;;;;;;148.82;107.10;;;231.10;1638.40;;;;;;5094460;28;20031;-76
2021/01/02 11:36:01;;;;;;;150.05;109.22;;;231.00;1638.40;;;;;;5095813;28;20024;-76
2021/01/02 11:38:26;;;;;;;147.82;115.65;;;231.00;1664.00;;;;;;5095626;28;20021;-75
2021/01/02 11:40:52;;;;;;;161.82;124.68;;;231.10;1664.00;;;;;;5095678;28;20020;-75
2021/01/02 11:43:18;;;;;;;165.70;129.32;;;231.10;1664.00;;;;;;5094368;28;20247;-75
2021/01/02 11:45:47;;;;;;;126.50;98.20;;;231.00;1689.60;;;;;;5095649;28;20152;-75
2021/01/02 11:48:14;;;;;;;106.32;83.57;;;231.00;1664.00;;;;;;5095434;28;20446;-77
2021/01/02 11:50:41;;;;;;;93.00;71.65;;;231.00;1664.00;;;;;;5095662;28;20012;-75
2021/01/02 11:53:08;;;;;;;86.00;66.55;;;231.00;1689.60;;;;;;5095420;28;20483;-75
2021/01/02 11:55:35;;;;;;;90.15;67.18;;;231.00;1664.00;;;;;;5095835;28;20379;-77
2021/01/02 11:58:02;;;;;;;90.03;64.22;;;230.90;1689.60;;;;;;5094227;28;20051;-75
2021/01/02 12:00:30;;;;;;;85.13;57.78;;;230.80;1715.20;;;;;;5095379;28;20056;-76
2021/01/02 12:02:56;;;;;;;77.07;55.53;;;230.80;1715.20;;;;;;5093916;28;20077;-75
2021/01/02 12:05:22;;;;;;;84.72;59.17;;;230.80;1715.20;;;;;;5095400;28;20050;-75
2021/01/02 12:07:49;;;;;;;88.50;59.65;;;230.70;1715.20;;;;;;5095253;28;20480;-76
2021/01/02 12:10:15;;;;;;;82.22;61.40;;;230.80;1715.20;;;;;;5094940;28;20381;-75
2021/01/02 12:12:41;;;;;;;101.68;74.63;;;230.70;1715.20;;;;;;5095187;28;20028;-78
2021/01/02 12:15:08;;;;;;;99.90;73.13;;;230.70;1715.20;;;;;;5095044;28;20464;-76
2021/01/02 12:17:34;;;;;;;101.85;70.65;;;230.70;1715.20;;;;;;5095102;28;20024;-75